createdAt,value
2022-11-12T00:00:12.694Z,5.90
2022-11-12T00:02:58.893Z,6.15
2022-11-12T00:05:44.736Z,4.93
2022-11-12T00:08:30.476Z,7.85
2022-11-12T00:11:16.417Z,8.27
2022-11-12T00:14:01.265Z,9.15
2022-11-12T00:16:46.632Z,7.53
2022-11-12T00:19:31.885Z,7.45
2022-11-12T00:22:17.339Z,5.82
2022-11-12T00:25:03.686Z,6.78
2022-11-12T00:27:48.858Z,7.65
2022-11-12T00:30:36.646Z,9.65
2022-11-12T00:33:22.074Z,9.05
2022-11-12T00:36:08.127Z,6.53
2022-11-12T00:38:53.505Z,8.07
2022-11-12T00:41:38.835Z,10.57
2022-11-12T00:44:24.391Z,10.35
2022-11-12T00:47:09.687Z,10.52
2022-11-12T00:49:55.066Z,10.40
2022-11-12T00:52:40.682Z,8.88
2022-11-12T00:55:26.061Z,12.27
2022-11-12T00:58:11.646Z,8.32
2022-11-12T01:00:57.305Z,8.63
2022-11-12T01:03:43.706Z,9.77
2022-11-12T01:06:29.407Z,9.07
2022-11-12T01:09:14.765Z,8.07
2022-11-12T01:12:00.123Z,6.80
2022-11-12T01:14:45.610Z,6.20
2022-11-12T01:17:31.974Z,8.30
2022-11-12T01:20:17.459Z,9.32
2022-11-12T01:23:02.715Z,7.43
2022-11-12T01:25:49.053Z,7.55
2022-11-12T01:28:35.247Z,7.43
2022-11-12T01:31:24.848Z,6.65
2022-11-12T01:34:10.574Z,4.80
2022-11-12T01:36:55.996Z,5.40
2022-11-12T01:39:41.261Z,5.75
2022-11-12T01:42:30.411Z,5.38
2022-11-12T01:45:16.056Z,7.43
2022-11-12T01:48:02.844Z,6.40
2022-11-12T01:50:48.206Z,6.85
2022-11-12T01:53:42.284Z,6.43
2022-11-12T01:56:31.321Z,7.65
2022-11-12T01:59:33.654Z,6.93
2022-11-12T02:02:19.078Z,5.75
2022-11-12T02:05:08.569Z,4.78
2022-11-12T02:07:54.886Z,7.72
2022-11-12T02:10:40.995Z,5.05
2022-11-12T02:13:44.832Z,9.50
2022-11-12T02:16:41.210Z,6.65
2022-11-12T02:19:26.950Z,6.57
2022-11-12T02:22:12.630Z,6.20
2022-11-12T02:24:57.922Z,4.47
2022-11-12T02:27:44.528Z,6.78
2022-11-12T02:30:36.595Z,5.63
2022-11-12T02:33:21.718Z,6.93
2022-11-12T02:36:07.075Z,8.95
2022-11-12T02:38:52.797Z,8.43
2022-11-12T02:41:40.959Z,6.80
2022-11-12T02:44:26.809Z,7.32
2022-11-12T02:47:12.645Z,8.00
2022-11-12T02:49:57.977Z,7.03
2022-11-12T02:52:43.607Z,5.28
2022-11-12T02:55:29.389Z,6.07
2022-11-12T02:58:14.983Z,7.45
2022-11-12T03:01:00.751Z,6.03
2022-11-12T03:03:45.989Z,4.13
2022-11-12T03:06:31.319Z,6.20
2022-11-12T03:09:16.651Z,5.00
2022-11-12T03:12:01.934Z,4.78
2022-11-12T03:14:47.400Z,4.70
2022-11-12T03:17:34.820Z,6.68
2022-11-12T03:20:20.659Z,4.38
2022-11-12T03:23:08.676Z,4.70
2022-11-12T03:25:54.096Z,6.15
2022-11-12T03:28:39.184Z,9.13
2022-11-12T03:31:24.789Z,6.43
2022-11-12T03:34:11.880Z,7.15
2022-11-12T03:36:57.204Z,4.82
2022-11-12T03:39:42.658Z,5.97
2022-11-12T03:42:27.939Z,4.35
2022-11-12T03:45:13.402Z,5.93
2022-11-12T03:47:59.030Z,5.57
2022-11-12T03:50:44.515Z,4.70
2022-11-12T03:53:29.694Z,5.13
2022-11-12T03:56:14.994Z,5.22
2022-11-12T03:59:00.299Z,7.53
2022-11-12T04:01:45.621Z,6.15
2022-11-12T04:04:50.915Z,4.90
2022-11-12T04:07:55.010Z,5.47
2022-11-12T04:10:40.547Z,8.43
2022-11-12T04:13:29.205Z,5.18
2022-11-12T04:16:38.445Z,5.38
2022-11-12T04:19:42.296Z,7.72
2022-11-12T04:22:27.483Z,5.93
2022-11-12T04:25:41.868Z,6.22
2022-11-12T04:31:13.057Z,6.07
2022-11-12T04:34:18.505Z,7.68
2022-11-12T04:37:05.564Z,7.35
2022-11-12T04:39:51.950Z,6.95
2022-11-12T04:42:56.193Z,6.63
2022-11-12T04:45:43.880Z,5.32
2022-11-12T04:48:30.126Z,5.78
2022-11-12T04:51:34.642Z,2.92
2022-11-12T04:54:19.680Z,5.93
2022-11-12T04:57:05.025Z,5.43
2022-11-12T04:59:50.549Z,7.93
2022-11-12T05:02:36.439Z,6.35
2022-11-12T05:05:21.780Z,5.28
2022-11-12T05:08:07.209Z,5.57
2022-11-12T05:10:52.404Z,5.40
2022-11-12T05:13:37.895Z,4.60
2022-11-12T05:16:23.068Z,5.35
2022-11-12T05:19:08.510Z,6.63
2022-11-12T05:22:06.354Z,4.85
2022-11-12T05:24:52.284Z,5.13
2022-11-12T05:27:37.994Z,5.80
2022-11-12T05:30:23.393Z,6.18
2022-11-12T05:33:08.964Z,6.32
2022-11-12T05:35:56.763Z,5.25
2022-11-12T05:38:42.201Z,5.85
2022-11-12T05:41:32.862Z,6.25
2022-11-12T05:44:30.754Z,6.45
2022-11-12T05:47:16.736Z,5.97
2022-11-12T05:50:02.177Z,5.35
2022-11-12T05:52:47.652Z,5.13
2022-11-12T05:55:37.097Z,5.53
2022-11-12T05:58:22.539Z,6.80
2022-11-12T06:01:08.200Z,4.68
2022-11-12T06:03:53.499Z,3.78
2022-11-12T06:06:39.686Z,5.57
2022-11-12T06:09:25.177Z,6.38
2022-11-12T06:12:10.467Z,4.93
2022-11-12T06:14:55.792Z,6.07
2022-11-12T06:17:42.581Z,5.75
2022-11-12T06:20:28.119Z,7.15
2022-11-12T06:23:13.455Z,4.63
2022-11-12T06:25:58.995Z,4.80
2022-11-12T06:28:44.780Z,6.15
2022-11-12T06:31:30.632Z,5.97
2022-11-12T06:34:16.010Z,5.38
2022-11-12T06:37:01.105Z,6.95
2022-11-12T06:39:46.549Z,8.20
2022-11-12T06:42:31.810Z,5.80
2022-11-12T06:45:17.242Z,9.40
2022-11-12T06:48:02.573Z,7.85
2022-11-12T06:50:48.003Z,9.10
2022-11-12T06:53:33.457Z,10.10
2022-11-12T06:56:19.998Z,8.40
2022-11-12T06:59:05.358Z,8.88
2022-11-12T07:01:50.947Z,6.28
2022-11-12T07:04:36.630Z,6.28
2022-11-12T07:07:22.016Z,7.95
2022-11-12T07:10:07.902Z,9.05
2022-11-12T07:12:54.209Z,6.82
2022-11-12T07:15:39.577Z,14.45
2022-11-12T07:18:25.108Z,5.68
2022-11-12T07:21:14.373Z,6.97
2022-11-12T07:23:59.772Z,9.27
2022-11-12T07:26:47.615Z,8.45
2022-11-12T07:29:47.043Z,11.13
2022-11-12T07:32:36.196Z,6.05
2022-11-12T07:35:24.174Z,6.40
2022-11-12T07:38:09.484Z,7.40
2022-11-12T07:41:03.104Z,7.07
2022-11-12T07:43:49.549Z,5.78
2022-11-12T07:46:34.889Z,8.45
2022-11-12T07:49:20.338Z,6.78
2022-11-12T07:52:05.740Z,5.68
2022-11-12T07:54:51.375Z,5.13
2022-11-12T07:57:36.664Z,6.28
2022-11-12T08:00:21.999Z,4.78
2022-11-12T08:03:07.445Z,5.88
2022-11-12T08:05:52.921Z,6.60
2022-11-12T08:08:38.316Z,4.13
2022-11-12T08:11:24.328Z,5.90
2022-11-12T08:14:10.781Z,9.38
2022-11-12T08:16:56.419Z,8.10
2022-11-12T08:19:41.940Z,7.75
2022-11-12T08:22:27.330Z,5.78
2022-11-12T08:25:12.720Z,5.85
2022-11-12T08:27:59.982Z,8.50
2022-11-12T08:30:45.428Z,8.48
2022-11-12T08:33:31.008Z,6.43
2022-11-12T08:36:17.549Z,5.93
2022-11-12T08:39:02.988Z,5.30
2022-11-12T08:41:48.204Z,4.43
2022-11-12T08:44:34.030Z,6.85
2022-11-12T08:47:19.882Z,10.20
2022-11-12T08:50:05.696Z,12.43
2022-11-12T08:52:51.252Z,10.80
2022-11-12T08:55:37.062Z,10.65
2022-11-12T08:58:23.960Z,12.60
2022-11-12T09:01:09.638Z,9.55
2022-11-12T09:03:55.515Z,6.55
2022-11-12T09:06:40.762Z,9.02
2022-11-12T09:09:25.988Z,9.20
2022-11-12T09:12:19.638Z,11.20
2022-11-12T09:15:36.240Z,10.30
2022-11-12T09:18:15.174Z,8.23
2022-11-12T09:21:04.817Z,6.70
2022-11-12T09:23:50.032Z,9.57
2022-11-12T09:26:35.722Z,12.25
2022-11-12T09:29:21.138Z,9.80
2022-11-12T09:32:06.551Z,7.95
2022-11-12T09:34:52.006Z,6.15
2022-11-12T09:37:38.349Z,6.15
2022-11-12T09:40:37.636Z,5.25
2022-11-12T09:43:34.517Z,7.05
2022-11-12T09:46:29.520Z,8.45
2022-11-12T09:49:19.120Z,5.63
2022-11-12T09:52:21.553Z,8.52
2022-11-12T09:55:34.935Z,6.47
2022-11-12T09:58:20.612Z,7.50
2022-11-12T10:01:38.854Z,6.30
2022-11-12T10:04:43.631Z,6.20
2022-11-12T10:07:49.022Z,6.10
2022-11-12T10:10:54.827Z,5.32
2022-11-12T10:14:19.559Z,6.55
2022-11-12T10:17:18.670Z,4.90
2022-11-12T10:20:20.846Z,6.40
2022-11-12T10:23:17.616Z,11.68
2022-11-12T10:26:12.772Z,7.28
2022-11-12T10:29:26.126Z,10.45
2022-11-12T10:32:15.739Z,9.15
2022-11-12T10:35:01.094Z,8.80
2022-11-12T10:38:04.669Z,8.55
2022-11-12T10:40:49.770Z,9.75
2022-11-12T10:43:35.321Z,9.55
2022-11-12T10:46:24.015Z,17.23
2022-11-12T10:49:16.160Z,34.50
2022-11-12T10:52:01.242Z,44.30
2022-11-12T10:54:50.975Z,36.97
2022-11-12T10:57:39.507Z,36.25
2022-11-12T11:00:26.404Z,75.00
2022-11-12T11:03:22.519Z,53.85
2022-11-12T11:06:14.097Z,56.72
2022-11-12T11:09:20.744Z,54.75
2022-11-12T11:12:29.711Z,47.90
2022-11-12T11:15:21.824Z,22.25
2022-11-12T11:18:11.890Z,11.00
2022-11-12T11:21:07.051Z,7.70
2022-11-12T11:24:26.696Z,10.77
2022-11-12T11:27:31.208Z,11.80
2022-11-12T11:30:19.730Z,7.20
2022-11-12T11:33:25.827Z,9.88
2022-11-12T11:36:26.339Z,10.70
2022-11-12T11:39:25.521Z,13.63
2022-11-12T11:42:40.854Z,9.77
2022-11-12T11:45:35.587Z,9.15
2022-11-12T11:48:53.216Z,11.63
2022-11-12T11:52:10.783Z,10.65
2022-11-12T11:54:59.662Z,11.88
2022-11-12T11:57:57.597Z,11.70
2022-11-12T12:00:43.108Z,12.00
2022-11-12T12:04:03.531Z,13.68
2022-11-12T12:07:21.036Z,16.63
2022-11-12T12:10:46.296Z,15.65
2022-11-12T12:13:47.326Z,23.58
2022-11-12T12:17:03.071Z,17.58
2022-11-12T12:20:14.882Z,14.48
2022-11-12T12:23:06.238Z,20.00
2022-11-12T12:25:59.028Z,16.88
2022-11-12T12:28:57.840Z,17.58
2022-11-12T12:31:52.811Z,19.02
2022-11-12T12:34:59.555Z,20.25
2022-11-12T12:37:53.956Z,24.05
2022-11-12T12:40:47.254Z,18.52
2022-11-12T12:43:37.244Z,22.60
2022-11-12T12:46:29.321Z,22.98
2022-11-12T12:49:19.045Z,30.35
2022-11-12T12:52:04.679Z,25.85
2022-11-12T12:54:56.658Z,24.88
2022-11-12T12:57:42.196Z,23.48
2022-11-12T13:00:48.046Z,29.90
2022-11-12T13:03:43.007Z,31.33
2022-11-12T13:06:40.279Z,26.20
2022-11-12T13:09:27.050Z,34.78
2022-11-12T13:12:12.682Z,31.70
2022-11-12T13:15:14.701Z,24.50
2022-11-12T13:21:31.102Z,27.40
2022-11-12T13:24:16.847Z,29.42
2022-11-12T13:27:02.479Z,40.30
2022-11-12T13:29:48.143Z,31.77
2022-11-12T13:32:36.602Z,27.52
2022-11-12T13:35:26.262Z,39.50
2022-11-12T13:38:16.016Z,27.10
2022-11-12T13:41:09.786Z,29.02
2022-11-12T13:43:56.757Z,26.20
2022-11-12T13:46:43.849Z,37.40
2022-11-12T13:49:30.401Z,26.23
2022-11-12T13:52:18.921Z,31.58
2022-11-12T13:55:07.141Z,36.03
2022-11-12T13:57:53.908Z,26.42
2022-11-12T14:00:40.062Z,29.30
2022-11-12T14:03:29.906Z,27.23
2022-11-12T14:06:43.058Z,33.42
2022-11-12T14:09:40.901Z,39.92
2022-11-12T14:12:29.564Z,35.28
2022-11-12T14:20:02.620Z,24.80
2022-11-12T14:22:48.579Z,28.80
2022-11-12T14:25:34.353Z,31.55
2022-11-12T14:28:34.757Z,24.23
2022-11-12T14:31:24.470Z,27.30
2022-11-12T14:34:21.641Z,36.83
2022-11-12T14:37:37.197Z,24.83
2022-11-12T14:40:27.718Z,37.13
2022-11-12T14:43:38.224Z,27.63
2022-11-12T14:46:30.729Z,35.85
2022-11-12T14:49:29.853Z,34.25
2022-11-12T14:52:22.801Z,32.60
2022-11-12T14:55:17.606Z,47.85
2022-11-12T14:58:04.865Z,31.45
2022-11-12T15:00:52.902Z,35.95
2022-11-12T15:03:38.714Z,23.95
2022-11-12T15:06:31.010Z,30.27
2022-11-12T15:09:19.088Z,31.58
2022-11-12T15:12:14.564Z,34.65
2022-11-12T15:15:18.927Z,26.92
2022-11-12T15:18:26.359Z,29.02
2022-11-12T15:21:11.983Z,23.30
2022-11-12T15:24:27.303Z,24.52
2022-11-12T15:27:38.582Z,34.67
2022-11-12T15:30:28.377Z,28.20
2022-11-12T15:33:14.001Z,50.00
2022-11-12T15:36:01.906Z,57.78
2022-11-12T15:38:49.893Z,61.60
2022-11-12T15:41:35.235Z,47.50
2022-11-12T15:44:20.871Z,52.58
2022-11-12T15:47:14.266Z,43.58
2022-11-12T15:49:59.497Z,25.15
2022-11-12T15:52:45.565Z,17.92
2022-11-12T15:55:32.933Z,21.85
2022-11-12T15:58:27.118Z,17.42
2022-11-12T16:01:12.868Z,19.60
2022-11-12T16:03:58.549Z,28.88
2022-11-12T16:06:44.145Z,27.92
2022-11-12T16:09:29.759Z,31.90
2022-11-12T16:12:16.046Z,27.58
2022-11-12T16:15:02.384Z,29.42
2022-11-12T16:17:48.850Z,22.13
2022-11-12T16:20:36.465Z,20.23
2022-11-12T16:23:22.324Z,20.25
2022-11-12T16:26:09.443Z,19.85
2022-11-12T16:28:54.905Z,30.27
2022-11-12T16:31:43.001Z,30.10
2022-11-12T16:34:29.480Z,22.25
2022-11-12T16:37:16.291Z,15.25
2022-11-12T16:40:01.931Z,23.27
2022-11-12T16:42:47.331Z,15.77
2022-11-12T16:45:36.251Z,14.98
2022-11-12T16:48:23.002Z,9.25
2022-11-12T16:51:19.076Z,10.55
2022-11-12T16:54:04.976Z,14.25
2022-11-12T16:56:50.624Z,15.55
2022-11-12T16:59:36.095Z,24.00
2022-11-12T17:02:21.613Z,18.50
2022-11-12T17:05:16.473Z,21.90
2022-11-12T17:08:01.733Z,17.15
2022-11-12T17:10:47.324Z,11.60
2022-11-12T17:13:32.969Z,17.35
2022-11-12T17:16:18.659Z,23.52
2022-11-12T17:19:05.939Z,22.95
2022-11-12T17:21:52.023Z,21.05
2022-11-12T17:24:37.428Z,19.27
2022-11-12T17:27:23.432Z,20.20
2022-11-12T17:30:09.358Z,22.55
2022-11-12T17:32:54.857Z,18.15
2022-11-12T17:35:40.400Z,17.75
2022-11-12T17:38:25.652Z,24.17
2022-11-12T17:41:11.816Z,18.33
2022-11-12T17:43:58.704Z,20.48
2022-11-12T17:46:48.539Z,17.70
2022-11-12T17:49:33.847Z,20.13
2022-11-12T17:52:19.269Z,23.52
2022-11-12T17:55:05.169Z,28.90
2022-11-12T17:57:50.870Z,20.13
2022-11-12T18:00:37.822Z,20.00
2022-11-12T18:03:24.164Z,19.88
2022-11-12T18:06:14.852Z,16.52
2022-11-12T18:09:15.448Z,65.95
2022-11-12T18:12:01.214Z,79.30
2022-11-12T18:14:47.104Z,68.50
2022-11-12T18:17:36.422Z,37.30
2022-11-12T18:20:21.680Z,26.88
2022-11-12T18:23:07.166Z,26.52
2022-11-12T18:25:52.790Z,29.35
2022-11-12T18:28:38.140Z,50.05
2022-11-12T18:31:25.355Z,41.65
2022-11-12T18:34:14.399Z,46.53
2022-11-12T18:37:00.133Z,45.60
2022-11-12T18:39:45.552Z,53.42
2022-11-12T18:42:30.996Z,52.70
2022-11-12T18:45:17.177Z,49.08
2022-11-12T18:48:04.670Z,46.03
2022-11-12T18:50:50.906Z,38.70
2022-11-12T18:53:38.131Z,37.13
2022-11-12T18:56:23.453Z,49.00
2022-11-12T18:59:11.639Z,40.22
2022-11-12T19:01:58.171Z,43.53
2022-11-12T19:04:45.629Z,41.28
2022-11-12T19:07:31.732Z,36.42
2022-11-12T19:10:17.494Z,37.08
2022-11-12T19:13:05.119Z,46.30
2022-11-12T19:15:50.681Z,44.00
2022-11-12T19:18:35.841Z,46.20
2022-11-12T19:21:23.719Z,31.73
2022-11-12T19:24:09.405Z,39.13
2022-11-12T19:26:55.017Z,37.20
2022-11-12T19:29:40.285Z,29.05
2022-11-12T19:32:25.872Z,41.05
2022-11-12T19:35:11.294Z,45.03
2022-11-12T19:37:57.029Z,41.90
2022-11-12T19:40:42.707Z,35.97
2022-11-12T19:43:28.629Z,35.33
2022-11-12T19:46:15.113Z,27.88
2022-11-12T19:49:00.573Z,28.23
2022-11-12T19:51:46.153Z,23.67
2022-11-12T19:54:31.392Z,20.65
2022-11-12T19:57:16.986Z,19.13
2022-11-12T20:00:02.280Z,21.33
2022-11-12T20:02:47.876Z,20.10
2022-11-12T20:05:33.807Z,21.33
2022-11-12T20:08:19.084Z,22.33
2022-11-12T20:11:05.178Z,21.02
2022-11-12T20:13:53.721Z,22.52
2022-11-12T20:16:39.624Z,19.45
2022-11-12T20:19:26.429Z,23.33
2022-11-12T20:22:12.101Z,31.45
2022-11-12T20:24:57.956Z,30.05
2022-11-12T20:27:43.510Z,35.78
2022-11-12T20:30:28.735Z,41.67
2022-11-12T20:33:15.413Z,33.38
2022-11-12T20:36:11.865Z,27.40
2022-11-12T20:38:57.319Z,22.52
2022-11-12T20:41:42.878Z,28.27
2022-11-12T20:44:28.320Z,26.38
2022-11-12T20:47:13.997Z,17.48
2022-11-12T20:49:59.167Z,21.77
2022-11-12T20:52:44.701Z,21.30
2022-11-12T20:55:32.586Z,22.38
2022-11-12T20:58:18.150Z,17.50
2022-11-12T21:01:05.782Z,24.73
2022-11-12T21:03:51.370Z,23.08
2022-11-12T21:06:37.264Z,20.55
2022-11-12T21:09:22.907Z,17.75
2022-11-12T21:12:08.505Z,15.50
2022-11-12T21:14:53.651Z,17.17
2022-11-12T21:17:39.260Z,19.88
2022-11-12T21:20:24.745Z,17.38
2022-11-12T21:23:10.277Z,19.15
2022-11-12T21:25:55.812Z,17.63
2022-11-12T21:28:46.106Z,15.10
2022-11-12T21:31:32.599Z,13.00
2022-11-12T21:34:18.168Z,14.80
2022-11-12T21:37:03.837Z,15.32
2022-11-12T21:39:49.563Z,16.25
2022-11-12T21:42:35.168Z,12.98
2022-11-12T21:45:20.827Z,13.98
2022-11-12T21:48:06.304Z,16.02
2022-11-12T21:50:51.728Z,13.43
2022-11-12T21:53:36.775Z,13.20
2022-11-12T21:56:23.111Z,13.02
2022-11-12T21:59:08.325Z,13.25
2022-11-12T22:01:53.892Z,13.98
2022-11-12T22:04:39.621Z,13.55
2022-11-12T22:07:25.098Z,14.77
2022-11-12T22:10:10.696Z,13.98
2022-11-12T22:13:20.201Z,15.80
2022-11-12T22:16:19.349Z,10.23
2022-11-12T22:19:04.765Z,8.73
2022-11-12T22:21:50.390Z,8.50
2022-11-12T22:24:35.749Z,10.80
2022-11-12T22:27:21.431Z,13.27
2022-11-12T22:30:07.476Z,9.20
2022-11-12T22:32:53.016Z,11.27
2022-11-12T22:35:38.317Z,11.05
2022-11-12T22:38:23.755Z,8.10
2022-11-12T22:41:20.382Z,11.43
2022-11-12T22:44:05.796Z,10.45
2022-11-12T22:46:51.326Z,9.65
2022-11-12T22:49:36.639Z,6.93
2022-11-12T22:52:22.211Z,6.50
2022-11-12T22:55:08.286Z,13.77
2022-11-12T22:57:54.034Z,8.65
2022-11-12T23:00:40.909Z,7.53
2022-11-12T23:03:26.574Z,6.63
2022-11-12T23:06:12.356Z,16.10
2022-11-12T23:08:59.766Z,13.05
2022-11-12T23:11:45.201Z,7.43
2022-11-12T23:14:30.580Z,5.72
2022-11-12T23:17:16.160Z,6.43
2022-11-12T23:20:01.799Z,5.75
2022-11-12T23:22:47.061Z,8.35
2022-11-12T23:25:36.278Z,6.10
2022-11-12T23:28:21.800Z,7.53
2022-11-12T23:31:18.410Z,7.50
2022-11-12T23:34:04.873Z,5.45
2022-11-12T23:36:50.038Z,4.47
2022-11-12T23:39:35.407Z,6.00
2022-11-12T23:42:20.903Z,4.88
2022-11-12T23:45:07.009Z,4.00
2022-11-12T23:47:52.751Z,8.15
2022-11-12T23:50:38.099Z,13.13
2022-11-12T23:53:23.512Z,11.30
2022-11-12T23:56:11.509Z,11.48
2022-11-12T23:58:57.098Z,9.27
